createdAt,value
2017-11-27T00:00:34.003Z,5.33
2017-11-27T00:05:36.564Z,5.30
2017-11-27T00:10:39.123Z,5.50
2017-11-27T00:15:41.664Z,6.20
2017-11-27T00:20:44.233Z,5.17
2017-11-27T00:25:46.790Z,4.60
2017-11-27T00:30:49.355Z,4.67
2017-11-27T00:35:51.933Z,5.00
2017-11-27T00:40:54.518Z,4.50
2017-11-27T00:45:57.090Z,4.73
2017-11-27T00:50:59.647Z,4.77
2017-11-27T00:56:02.209Z,4.40
2017-11-27T01:01:04.761Z,4.20
2017-11-27T01:06:07.304Z,4.57
2017-11-27T01:11:09.864Z,4.90
2017-11-27T01:16:12.438Z,4.07
2017-11-27T01:21:15.049Z,5.07
2017-11-27T01:26:18.401Z,4.47
2017-11-27T01:31:20.965Z,5.37
2017-11-27T01:36:23.561Z,4.77
2017-11-27T01:41:26.896Z,4.50
2017-11-27T01:46:29.456Z,3.37
2017-11-27T01:51:32.030Z,3.70
2017-11-27T01:56:34.591Z,3.50
2017-11-27T02:01:37.150Z,4.03
2017-11-27T02:06:39.712Z,3.83
2017-11-27T02:11:43.039Z,3.80
2017-11-27T02:16:45.592Z,4.27
2017-11-27T02:21:48.939Z,3.60
2017-11-27T02:26:51.513Z,4.20
2017-11-27T02:31:54.069Z,4.93
2017-11-27T02:36:56.618Z,4.93
2017-11-27T02:41:59.181Z,4.30
2017-11-27T02:47:01.748Z,4.90
2017-11-27T02:52:04.712Z,4.40
2017-11-27T02:57:07.249Z,4.10
2017-11-27T03:02:09.826Z,4.90
2017-11-27T03:07:12.398Z,4.73
2017-11-27T03:12:14.968Z,4.17
2017-11-27T03:17:17.535Z,4.43
2017-11-27T03:22:20.102Z,5.00
2017-11-27T03:27:23.431Z,5.60
2017-11-27T03:32:25.997Z,4.97
2017-11-27T03:37:28.563Z,5.50
2017-11-27T03:42:31.788Z,5.00
2017-11-27T03:47:34.349Z,4.63
2017-11-27T03:52:36.904Z,6.07
2017-11-27T03:57:39.443Z,5.73
2017-11-27T04:02:42.019Z,5.57
2017-11-27T04:07:44.571Z,5.87
2017-11-27T04:12:47.128Z,5.07
2017-11-27T04:17:49.704Z,5.63
2017-11-27T04:22:52.260Z,5.70
2017-11-27T04:27:54.833Z,5.40
2017-11-27T04:32:57.374Z,5.37
2017-11-27T04:37:59.937Z,5.60
2017-11-27T04:43:02.484Z,6.27
2017-11-27T04:48:05.069Z,5.73
2017-11-27T04:53:07.617Z,5.17
2017-11-27T04:58:10.939Z,4.80
2017-11-27T05:03:13.533Z,5.33
2017-11-27T05:08:16.102Z,6.60
2017-11-27T05:13:18.672Z,6.43
2017-11-27T05:18:21.223Z,6.60
2017-11-27T05:23:23.789Z,9.20
2017-11-27T05:28:26.349Z,5.43
2017-11-27T05:33:28.916Z,6.60
2017-11-27T05:38:31.719Z,7.20
2017-11-27T05:43:34.325Z,5.97
2017-11-27T05:48:37.652Z,7.67
2017-11-27T05:53:40.207Z,6.83
2017-11-27T05:58:42.761Z,6.23
2017-11-27T06:03:45.326Z,6.87
2017-11-27T06:08:47.872Z,5.90
2017-11-27T06:13:50.429Z,5.60
2017-11-27T06:18:53.758Z,6.57
2017-11-27T06:23:56.308Z,7.00
2017-11-27T06:28:58.864Z,4.90
2017-11-27T06:34:02.183Z,6.07
2017-11-27T06:39:04.764Z,6.60
2017-11-27T06:44:08.086Z,5.40
2017-11-27T06:49:10.676Z,5.73
2017-11-27T06:54:13.229Z,6.30
2017-11-27T06:59:15.833Z,5.47
2017-11-27T07:04:18.405Z,6.07
2017-11-27T07:09:21.000Z,5.77
2017-11-27T07:14:23.580Z,4.60
2017-11-27T07:19:26.131Z,4.80
2017-11-27T07:24:28.685Z,3.83
2017-11-27T07:29:31.255Z,4.30
2017-11-27T07:34:33.809Z,5.97
2017-11-27T07:39:42.129Z,3.80
2017-11-27T07:44:44.674Z,3.60
2017-11-27T07:49:47.217Z,4.07
2017-11-27T07:54:49.791Z,4.23
2017-11-27T07:59:52.348Z,4.23
2017-11-27T08:04:54.900Z,3.90
2017-11-27T08:09:58.221Z,4.50
2017-11-27T08:15:00.785Z,4.70
2017-11-27T08:20:03.348Z,4.60
2017-11-27T08:25:05.908Z,5.10
2017-11-27T08:30:08.465Z,4.47
2017-11-27T08:35:11.049Z,5.10
2017-11-27T08:40:13.623Z,4.77
2017-11-27T08:45:16.177Z,4.10
2017-11-27T08:50:18.727Z,3.53
2017-11-27T08:55:21.257Z,3.70
2017-11-27T09:00:23.837Z,4.23
2017-11-27T09:05:26.398Z,3.20
2017-11-27T09:10:29.212Z,4.30
2017-11-27T09:15:31.776Z,4.30
2017-11-27T09:20:34.320Z,4.70
2017-11-27T09:25:37.100Z,5.17
2017-11-27T09:30:39.665Z,3.70
2017-11-27T09:35:42.220Z,4.10
2017-11-27T09:40:44.761Z,3.53
2017-11-27T09:45:47.314Z,4.43
2017-11-27T09:50:50.632Z,3.60
2017-11-27T09:55:53.204Z,3.50
2017-11-27T10:00:55.752Z,4.47
2017-11-27T10:05:58.333Z,3.60
2017-11-27T10:11:00.891Z,2.97
2017-11-27T10:16:04.229Z,3.20
2017-11-27T10:21:07.556Z,3.37
2017-11-27T10:26:10.884Z,3.57
2017-11-27T10:31:13.475Z,2.93
2017-11-27T10:36:16.813Z,3.27
2017-11-27T10:41:19.389Z,3.80
2017-11-27T10:46:21.944Z,3.10
2017-11-27T10:51:24.492Z,2.53
2017-11-27T10:56:27.034Z,3.20
2017-11-27T11:01:29.571Z,3.03
2017-11-27T11:06:32.124Z,2.83
2017-11-27T11:11:34.666Z,2.77
2017-11-27T11:16:37.228Z,2.67
2017-11-27T11:21:39.772Z,2.60
2017-11-27T11:26:43.089Z,2.60
2017-11-27T11:31:45.636Z,2.57
2017-11-27T11:36:48.189Z,2.80
2017-11-27T11:41:51.512Z,2.27
2017-11-27T11:46:54.073Z,2.83
2017-11-27T11:51:56.627Z,2.40
2017-11-27T11:56:59.200Z,2.60
2017-11-27T12:02:02.574Z,2.60
2017-11-27T12:07:05.137Z,2.20
2017-11-27T12:12:07.694Z,2.20
2017-11-27T12:17:10.238Z,3.70
2017-11-27T12:22:12.809Z,2.53
2017-11-27T12:27:15.377Z,2.77
2017-11-27T12:32:17.937Z,2.90
2017-11-27T12:37:20.511Z,3.00
2017-11-27T12:42:23.085Z,2.73
2017-11-27T12:47:25.641Z,3.40
2017-11-27T12:57:33.362Z,2.10
2017-11-27T13:02:35.909Z,3.20
2017-11-27T13:07:38.498Z,2.83
2017-11-27T13:12:41.037Z,2.40
2017-11-27T13:17:43.578Z,2.47
2017-11-27T13:22:46.120Z,2.63
2017-11-27T13:27:48.672Z,3.10
2017-11-27T13:32:51.211Z,2.97
2017-11-27T13:37:53.791Z,2.33
2017-11-27T13:42:56.342Z,2.63
2017-11-27T13:47:59.674Z,2.47
2017-11-27T13:53:02.226Z,2.43
2017-11-27T13:58:04.777Z,1.80
2017-11-27T15:03:18.434Z,2.43
2017-11-27T15:08:21.022Z,2.30
2017-11-27T15:13:23.657Z,1.87
2017-11-27T15:18:26.263Z,2.00
2017-11-27T15:23:28.832Z,2.07
2017-11-27T15:28:31.411Z,2.03
2017-11-27T15:33:34.782Z,2.20
2017-11-27T15:38:37.345Z,2.30
2017-11-27T15:43:39.952Z,2.20
2017-11-27T15:48:42.563Z,1.27
2017-11-27T15:53:45.161Z,1.73
2017-11-27T15:58:47.764Z,1.97
2017-11-27T16:03:50.371Z,2.00
2017-11-27T16:08:52.955Z,1.53
2017-11-27T16:13:55.604Z,1.80
2017-11-27T16:18:58.207Z,2.03
2017-11-27T16:24:00.850Z,1.43
2017-11-27T16:29:03.478Z,2.13
2017-11-27T16:34:06.080Z,2.87
2017-11-27T16:39:08.684Z,1.60
2017-11-27T16:44:11.333Z,1.60
2017-11-27T16:49:13.866Z,1.83
2017-11-27T16:54:16.440Z,1.97
2017-11-27T16:59:19.041Z,2.60
2017-11-27T17:04:21.600Z,1.80
2017-11-27T17:09:24.927Z,1.70
2017-11-27T17:14:28.469Z,2.00
2017-11-27T17:19:31.017Z,2.33
2017-11-27T17:24:33.755Z,1.77
2017-11-27T17:29:36.365Z,1.47
2017-11-27T17:34:38.918Z,2.70
2017-11-27T17:39:41.511Z,1.20
2017-11-27T17:44:44.119Z,1.93
2017-11-27T17:49:46.680Z,1.93
2017-11-27T17:54:49.238Z,2.07
2017-11-27T17:59:51.798Z,1.90
2017-11-27T18:04:54.371Z,2.30
2017-11-27T18:09:56.956Z,2.07
2017-11-27T18:14:59.495Z,1.87
2017-11-27T18:20:02.071Z,1.73
2017-11-27T18:25:04.634Z,1.33
2017-11-27T18:30:07.180Z,2.20
2017-11-27T18:35:09.731Z,1.60
2017-11-27T18:40:13.015Z,1.73
2017-11-27T18:45:15.560Z,1.50
2017-11-27T18:50:18.116Z,1.20
2017-11-27T18:55:20.673Z,1.93
2017-11-27T19:00:23.239Z,1.70
2017-11-27T19:05:26.572Z,1.70
2017-11-27T19:10:29.898Z,1.70
2017-11-27T19:15:32.416Z,1.70
2017-11-27T19:20:34.984Z,1.20
2017-11-27T19:25:37.543Z,1.97
2017-11-27T19:30:44.009Z,1.70
2017-11-27T19:35:46.569Z,1.40
2017-11-27T19:40:49.893Z,2.17
2017-11-27T19:45:52.489Z,1.50
2017-11-27T19:50:55.032Z,1.33
2017-11-27T19:55:57.595Z,1.80
2017-11-27T20:01:00.149Z,1.50
2017-11-27T20:06:02.707Z,2.27
2017-11-27T20:11:06.161Z,2.00
2017-11-27T20:16:08.721Z,1.20
2017-11-27T20:21:11.276Z,2.17
2017-11-27T20:26:13.831Z,1.47
2017-11-27T20:31:16.404Z,1.80
2017-11-27T20:36:18.983Z,1.40
2017-11-27T20:41:22.341Z,1.20
2017-11-27T20:46:25.677Z,1.50
2017-11-27T20:51:28.361Z,1.70
2017-11-27T20:56:33.903Z,1.47
2017-11-27T21:06:46.022Z,1.50
2017-11-27T21:11:50.665Z,1.17
2017-11-27T21:16:53.935Z,1.87
2017-11-27T21:21:57.731Z,1.57
2017-11-27T21:27:00.479Z,1.43
2017-11-27T21:32:03.964Z,1.57
2017-11-27T21:37:07.800Z,2.77
2017-11-27T21:42:10.735Z,1.27
2017-11-27T21:47:13.590Z,2.13
2017-11-27T21:52:17.092Z,1.50
2017-11-27T21:57:19.915Z,1.50
2017-11-27T22:02:23.494Z,1.47
2017-11-27T22:07:26.291Z,1.40
2017-11-27T22:12:29.810Z,1.20
2017-11-27T22:17:33.106Z,1.80
2017-11-27T22:22:36.133Z,1.57
2017-11-27T22:27:39.803Z,1.67
2017-11-27T22:32:43.340Z,1.37
2017-11-27T22:37:46.722Z,1.67
2017-11-27T22:42:50.333Z,1.40
2017-11-27T22:47:53.556Z,1.40
2017-11-27T22:52:56.767Z,1.03
2017-11-27T22:57:59.707Z,1.17
2017-11-27T23:03:02.607Z,1.10
2017-11-27T23:08:06.310Z,1.27
2017-11-27T23:13:09.208Z,1.40
2017-11-27T23:18:12.075Z,1.33
2017-11-27T23:23:17.871Z,1.10
2017-11-27T23:28:20.830Z,1.00
2017-11-27T23:33:23.507Z,0.80
2017-11-27T23:38:27.327Z,1.10
2017-11-27T23:43:30.112Z,1.53
2017-11-27T23:48:33.140Z,1.30
2017-11-27T23:53:35.873Z,1.40
2017-11-27T23:58:38.801Z,1.30
